Villa Verona, California
Current Conditions -  °F | °C
As of 5:53 AM on Sunday 21 Dec 2014 (Local Time) from KOVE Reporting Station
Overcast Overcast  
Wind Chill: 56°   Ceiling: 1900
Heat Index: 56°   Visibility: 10mi
Dew Point: 51°   Wind: 8mph
Humidity: 84%   Direction: 90°E
Pressure: 30.25"   Gusts: NA
Location:  39.5324°N, 121.648°W
Report Text: KOVE 211353Z AUTO 09007KT 10SM OVC019 13/11 A3025 RMK AO2 SLP247 T01330106
Loading
Personal Weather Stations






























Interactive Weather Map New forecast layout! Learn more

10-Day Weather Forecast

Advertisements
Track Severe Weather on mobile